Time;durP1;ratioP1;P1;durP2;ratioP2;P2;SDS_P1;SDS_P2;PMS_P1;PMS_P2;Temp;Humidity;BMP_temperature;BMP_pressure;BME280_temperature;BME280_humidity;BME280_pressure;Samples;Min_cycle;Max_cycle;Signal;HPM_P1;HPM_P2
2022/04/11 00:02:00;;;;;;;20.13;11.60;;;;;;;;;;5095149;28;20858;-73
2022/04/11 00:04:27;;;;;;;19.40;11.73;;;;;;;;;;5095071;28;20491;-73
2022/04/11 00:06:54;;;;;;;18.33;12.33;;;;;;;;;;5095129;28;20462;-73
2022/04/11 00:09:22;;;;;;;16.97;12.33;;;;;;;;;;5095216;28;20475;-73
2022/04/11 00:11:50;;;;;;;20.50;13.30;;;;;;;;;;5095068;28;20795;-73
2022/04/11 00:14:17;;;;;;;14.33;9.60;;;;;;;;;;5094829;28;20475;-73
2022/04/11 00:16:44;;;;;;;17.23;12.20;;;;;;;;;;5095168;28;20450;-73
2022/04/11 00:19:12;;;;;;;17.43;10.37;;;;;;;;;;5094882;28;20471;-73
2022/04/11 00:21:39;;;;;;;20.40;13.47;;;;;;;;;;5094884;28;20971;-73
2022/04/11 00:24:06;;;;;;;17.17;11.60;;;;;;;;;;5094538;28;20501;-73
2022/04/11 00:26:33;;;;;;;20.30;11.33;;;;;;;;;;5094874;28;20450;-73
2022/04/11 00:29:02;;;;;;;17.73;11.90;;;;;;;;;;5094566;28;20478;-73
2022/04/11 00:31:29;;;;;;;17.73;11.73;;;;;;;;;;5094710;28;20455;-73
2022/04/11 00:33:57;;;;;;;21.80;12.67;;;;;;;;;;5093619;28;20450;-72
2022/04/11 00:36:24;;;;;;;17.43;12.50;;;;;;;;;;5094368;28;20541;-73
2022/04/11 00:38:51;;;;;;;21.77;13.50;;;;;;;;;;5094575;28;20478;-73
2022/04/11 00:41:18;;;;;;;22.77;13.37;;;;;;;;;;5094401;28;20458;-73
2022/04/11 00:43:45;;;;;;;16.60;12.97;;;;;;;;;;5094335;28;20451;-72
2022/04/11 00:46:14;;;;;;;19.60;13.13;;;;;;;;;;5094282;28;20497;-73
2022/04/11 00:48:42;;;;;;;25.33;15.73;;;;;;;;;;5094397;28;20478;-73
2022/04/11 00:51:10;;;;;;;24.23;16.17;;;;;;;;;;5094236;28;20457;-73
2022/04/11 00:53:39;;;;;;;18.83;14.17;;;;;;;;;;5093934;28;20447;-73
2022/04/11 00:56:08;;;;;;;23.53;14.70;;;;;;;;;;5094254;28;20451;-73
2022/04/11 00:58:36;;;;;;;20.77;13.03;;;;;;;;;;5094288;28;20470;-73
2022/04/11 01:01:04;;;;;;;19.80;13.83;;;;;;;;;;5094205;28;20459;-73
2022/04/11 01:03:32;;;;;;;21.67;15.63;;;;;;;;;;5094073;28;20442;-72
2022/04/11 01:05:59;;;;;;;26.17;17.27;;;;;;;;;;5093913;28;20975;-74
2022/04/11 01:08:27;;;;;;;29.73;16.70;;;;;;;;;;5093922;28;20471;-73
2022/04/11 01:10:54;;;;;;;27.90;16.73;;;;;;;;;;5093814;28;20451;-73
2022/04/11 01:13:21;;;;;;;24.33;14.80;;;;;;;;;;5093984;28;20931;-72
2022/04/11 01:15:55;;;;;;;18.53;13.60;;;;;;;;;;5093705;28;20453;-73
2022/04/11 01:18:22;;;;;;;18.50;12.37;;;;;;;;;;5093674;28;20463;-73
2022/04/11 01:20:50;;;;;;;17.27;11.00;;;;;;;;;;5093988;28;20443;-72
2022/04/11 01:23:19;;;;;;;18.00;12.03;;;;;;;;;;5093488;28;20470;-72
2022/04/11 01:25:50;;;;;;;16.47;10.17;;;;;;;;;;5093310;28;20490;-72
2022/04/11 01:28:17;;;;;;;16.10;11.40;;;;;;;;;;5093558;28;20470;-72
2022/04/11 01:30:45;;;;;;;15.60;11.53;;;;;;;;;;5093706;28;20450;-73
2022/04/11 01:33:16;;;;;;;17.10;11.80;;;;;;;;;;5093645;28;20450;-73
2022/04/11 01:35:43;;;;;;;18.63;12.50;;;;;;;;;;5093290;28;20442;-72
2022/04/11 01:38:10;;;;;;;16.47;12.63;;;;;;;;;;5093494;28;20846;-73
2022/04/11 01:40:39;;;;;;;18.63;11.23;;;;;;;;;;5093681;28;20447;-73
2022/04/11 01:43:06;;;;;;;21.03;12.67;;;;;;;;;;5093336;28;20489;-73
2022/04/11 01:45:33;;;;;;;21.27;13.17;;;;;;;;;;5092961;28;20493;-73
2022/04/11 01:48:00;;;;;;;18.37;11.80;;;;;;;;;;5093214;28;20592;-73
2022/04/11 01:50:27;;;;;;;18.53;11.93;;;;;;;;;;5093546;28;20454;-73
2022/04/11 01:52:54;;;;;;;18.17;11.97;;;;;;;;;;5092832;28;20454;-72
2022/04/11 01:55:21;;;;;;;18.17;12.53;;;;;;;;;;5093188;28;20447;-73
2022/04/11 01:57:50;;;;;;;16.03;10.53;;;;;;;;;;5093436;28;20447;-73
2022/04/11 02:00:17;;;;;;;19.80;11.60;;;;;;;;;;5093416;28;20973;-73
2022/04/11 02:02:44;;;;;;;20.97;12.47;;;;;;;;;;5093204;28;20823;-73
2022/04/11 02:05:11;;;;;;;19.00;12.00;;;;;;;;;;5092889;28;20505;-73
2022/04/11 02:07:38;;;;;;;18.33;12.37;;;;;;;;;;5093269;28;20458;-73
2022/04/11 02:10:05;;;;;;;21.60;12.93;;;;;;;;;;5093159;28;20462;-73
2022/04/11 02:12:33;;;;;;;18.80;12.40;;;;;;;;;;5093281;28;20451;-73
2022/04/11 02:15:01;;;;;;;17.03;11.30;;;;;;;;;;5092728;28;20454;-72
2022/04/11 02:17:28;;;;;;;16.90;11.87;;;;;;;;;;5093173;28;20823;-73
2022/04/11 02:19:55;;;;;;;18.70;11.87;;;;;;;;;;5093217;28;20877;-73
2022/04/11 02:22:22;;;;;;;17.83;11.40;;;;;;;;;;5092973;28;20462;-73
2022/04/11 02:24:49;;;;;;;18.80;12.80;;;;;;;;;;5092776;28;20498;-73
2022/04/11 02:27:16;;;;;;;16.67;12.00;;;;;;;;;;5092888;28;20450;-73
2022/04/11 02:29:43;;;;;;;17.87;11.17;;;;;;;;;;5092913;28;21014;-73
2022/04/11 02:32:12;;;;;;;20.00;10.93;;;;;;;;;;5092968;28;20455;-73
2022/04/11 02:34:39;;;;;;;19.20;13.30;;;;;;;;;;5092840;28;20455;-73
2022/04/11 02:37:06;;;;;;;22.70;10.60;;;;;;;;;;5092876;28;20450;-73
2022/04/11 02:39:33;;;;;;;18.03;10.43;;;;;;;;;;5093005;28;20890;-73
2022/04/11 02:42:00;;;;;;;17.63;11.63;;;;;;;;;;5092893;28;20860;-73
2022/04/11 02:44:28;;;;;;;19.03;10.30;;;;;;;;;;5092663;28;20936;-73
2022/04/11 02:46:55;;;;;;;21.23;13.23;;;;;;;;;;5092728;28;20458;-73
2022/04/11 02:49:24;;;;;;;19.50;11.90;;;;;;;;;;5092818;28;20470;-73
2022/04/11 02:51:51;;;;;;;20.67;11.13;;;;;;;;;;5092830;28;21020;-73
2022/04/11 02:54:18;;;;;;;19.97;13.53;;;;;;;;;;5092066;28;20823;-72
2022/04/11 02:56:45;;;;;;;20.60;12.40;;;;;;;;;;5092746;28;20446;-73
2022/04/11 02:59:12;;;;;;;21.13;13.27;;;;;;;;;;5095882;28;20458;-73
2022/04/11 03:01:39;;;;;;;23.73;13.30;;;;;;;;;;5096690;28;20458;-73
2022/04/11 03:04:07;;;;;;;23.90;13.60;;;;;;;;;;5096211;28;20447;-72
2022/04/11 03:06:35;;;;;;;22.07;13.73;;;;;;;;;;5096362;28;20492;-73
2022/04/11 03:09:02;;;;;;;26.83;15.23;;;;;;;;;;5096454;28;20838;-73
2022/04/11 03:11:29;;;;;;;27.90;14.30;;;;;;;;;;5096331;28;20454;-73
2022/04/11 03:13:57;;;;;;;22.70;13.27;;;;;;;;;;5096089;28;20454;-72
2022/04/11 03:16:24;;;;;;;22.73;13.20;;;;;;;;;;5096261;28;20443;-72
2022/04/11 03:18:51;;;;;;;28.67;17.40;;;;;;;;;;5096245;28;21089;-73
2022/04/11 03:21:18;;;;;;;31.73;20.73;;;;;;;;;;5096281;28;20447;-72
2022/04/11 03:23:46;;;;;;;36.03;21.43;;;;;;;;;;5095818;28;20462;-72
2022/04/11 03:26:13;;;;;;;31.33;19.60;;;;;;;;;;5095967;28;20494;-72
2022/04/11 03:28:40;;;;;;;38.60;21.47;;;;;;;;;;5096037;28;20470;-72
2022/04/11 03:31:07;;;;;;;36.13;20.53;;;;;;;;;;5095932;28;20458;-73
2022/04/11 03:33:35;;;;;;;30.60;21.47;;;;;;;;;;5095943;28;20462;-73
2022/04/11 03:36:02;;;;;;;30.23;19.37;;;;;;;;;;5095878;28;20450;-73
2022/04/11 03:38:29;;;;;;;31.20;18.30;;;;;;;;;;5095720;28;20524;-73
2022/04/11 03:40:57;;;;;;;25.10;16.13;;;;;;;;;;5095807;28;20826;-73
2022/04/11 03:43:24;;;;;;;27.30;17.50;;;;;;;;;;5095863;28;20493;-73
2022/04/11 03:45:52;;;;;;;22.83;14.10;;;;;;;;;;5095554;28;20878;-72
2022/04/11 03:48:19;;;;;;;29.50;15.33;;;;;;;;;;5095851;28;20983;-73
2022/04/11 03:50:46;;;;;;;26.83;16.97;;;;;;;;;;5095657;28;20450;-73
2022/04/11 03:53:14;;;;;;;23.17;15.40;;;;;;;;;;5095218;28;20453;-73
2022/04/11 03:55:41;;;;;;;21.87;14.30;;;;;;;;;;5095388;28;20451;-72
2022/04/11 03:58:10;;;;;;;25.63;16.50;;;;;;;;;;5095337;28;20470;-72
2022/04/11 04:00:37;;;;;;;24.27;14.97;;;;;;;;;;5095703;28;20451;-72
2022/04/11 04:03:07;;;;;;;22.77;15.87;;;;;;;;;;5095348;28;20466;-72
2022/04/11 04:05:40;;;;;;;29.00;13.30;;;;;;;;;;5095092;28;20490;-72
2022/04/11 04:08:07;;;;;;;21.60;14.27;;;;;;;;;;5095154;28;20520;-73
2022/04/11 04:10:34;;;;;;;24.17;14.80;;;;;;;;;;5095363;28;20462;-73
2022/04/11 04:13:02;;;;;;;28.83;16.37;;;;;;;;;;5095158;28;20450;-73
2022/04/11 04:15:31;;;;;;;19.20;13.60;;;;;;;;;;5095139;28;20439;-72
2022/04/11 04:17:58;;;;;;;20.47;13.97;;;;;;;;;;5095218;28;20443;-72
2022/04/11 04:20:26;;;;;;;21.23;12.07;;;;;;;;;;5095124;28;20447;-72
2022/04/11 04:22:53;;;;;;;20.53;14.43;;;;;;;;;;5094853;28;20466;-72
2022/04/11 04:25:20;;;;;;;21.80;12.87;;;;;;;;;;5094735;28;20482;-72
2022/04/11 04:27:47;;;;;;;18.27;12.67;;;;;;;;;;5094959;28;20936;-72
2022/04/11 04:30:14;;;;;;;19.53;13.07;;;;;;;;;;5095035;28;20815;-72
2022/04/11 04:32:43;;;;;;;25.40;14.33;;;;;;;;;;5094771;28;20958;-72
2022/04/11 04:35:12;;;;;;;19.73;14.20;;;;;;;;;;5094614;28;20455;-72
2022/04/11 04:37:39;;;;;;;29.83;22.23;;;;;;;;;;5094766;28;21001;-72
2022/04/11 04:40:07;;;;;;;26.47;15.50;;;;;;;;;;5094672;28;20455;-72
2022/04/11 04:42:34;;;;;;;24.07;14.97;;;;;;;;;;5094794;28;20452;-73
2022/04/11 04:45:01;;;;;;;20.77;16.33;;;;;;;;;;5094318;28;20451;-73
2022/04/11 04:47:28;;;;;;;26.60;17.60;;;;;;;;;;5094561;28;20486;-73
2022/04/11 04:49:57;;;;;;;24.47;19.03;;;;;;;;;;5094445;28;20481;-73
2022/04/11 04:52:24;;;;;;;26.10;18.70;;;;;;;;;;5094459;28;20457;-73
2022/04/11 04:54:51;;;;;;;34.10;22.57;;;;;;;;;;5093690;28;20954;-73
2022/04/11 04:57:18;;;;;;;24.97;18.40;;;;;;;;;;5094573;28;20931;-73
2022/04/11 04:59:45;;;;;;;26.13;17.17;;;;;;;;;;5094313;28;20824;-73
2022/04/11 05:02:12;;;;;;;19.00;13.60;;;;;;;;;;5094210;28;20453;-73
2022/04/11 05:04:40;;;;;;;20.40;15.23;;;;;;;;;;5094103;28;20454;-73
2022/04/11 05:07:08;;;;;;;13.87;10.70;;;;;;;;;;5094128;28;20489;-73
2022/04/11 05:09:35;;;;;;;26.30;17.47;;;;;;;;;;5094100;28;20470;-73
2022/04/11 05:12:02;;;;;;;21.27;14.80;;;;;;;;;;5094039;28;20443;-73
2022/04/11 05:14:29;;;;;;;14.80;10.83;;;;;;;;;;5093769;28;20465;-73
2022/04/11 05:16:56;;;;;;;11.43;8.97;;;;;;;;;;5089811;28;20447;-73
2022/04/11 05:19:23;;;;;;;8.90;8.10;;;;;;;;;;5092875;28;20467;-73
2022/04/11 05:21:51;;;;;;;9.60;8.63;;;;;;;;;;5091863;28;20454;-73
2022/04/11 05:24:19;;;;;;;12.77;10.43;;;;;;;;;;5093019;28;20439;-74
2022/04/11 05:26:46;;;;;;;14.60;9.87;;;;;;;;;;5092349;28;20494;-73
2022/04/11 05:29:14;;;;;;;12.07;8.80;;;;;;;;;;5092435;28;20463;-73
2022/04/11 05:31:41;;;;;;;9.60;8.60;;;;;;;;;;5093068;28;20455;-73
2022/04/11 05:34:08;;;;;;;11.43;8.67;;;;;;;;;;5093491;28;20458;-73
2022/04/11 05:36:35;;;;;;;15.20;8.20;;;;;;;;;;5093731;28;20438;-73
2022/04/11 05:39:02;;;;;;;16.60;10.20;;;;;;;;;;5093571;28;20478;-73
2022/04/11 05:41:30;;;;;;;8.77;6.97;;;;;;;;;;5093783;28;20826;-73
2022/04/11 05:43:57;;;;;;;10.97;7.77;;;;;;;;;;5093266;28;20988;-73
2022/04/11 05:46:25;;;;;;;8.30;6.00;;;;;;;;;;5091967;28;20999;-72
2022/04/11 05:48:52;;;;;;;8.03;6.67;;;;;;;;;;5071056;28;20478;-73
2022/04/11 05:51:19;;;;;;;7.90;6.63;;;;;;;;;;5071745;28;20459;-73
2022/04/11 05:53:46;;;;;;;8.87;6.23;;;;;;;;;;5071087;28;20451;-73
2022/04/11 05:56:13;;;;;;;8.60;6.60;;;;;;;;;;5071771;28;20865;-73
2022/04/11 05:58:41;;;;;;;6.57;5.97;;;;;;;;;;5071769;28;20471;-73
2022/04/11 06:01:08;;;;;;;7.20;6.50;;;;;;;;;;5071546;28;20511;-73
2022/04/11 06:03:38;;;;;;;8.10;6.73;;;;;;;;;;5071429;28;20452;-73
2022/04/11 06:06:05;;;;;;;6.87;5.57;;;;;;;;;;5071397;28;20509;-73
2022/04/11 06:08:32;;;;;;;6.30;5.70;;;;;;;;;;5071575;28;20476;-74
2022/04/11 06:10:59;;;;;;;6.53;6.03;;;;;;;;;;5071309;28;20462;-73
2022/04/11 06:13:26;;;;;;;9.50;6.03;;;;;;;;;;5071566;28;20460;-73
2022/04/11 06:15:55;;;;;;;6.47;5.77;;;;;;;;;;5071507;28;20940;-74
2022/04/11 06:18:22;;;;;;;9.83;6.10;;;;;;;;;;5071388;28;20532;-74
2022/04/11 06:20:50;;;;;;;6.93;6.33;;;;;;;;;;5071495;28;20448;-74
2022/04/11 06:23:17;;;;;;;8.10;6.10;;;;;;;;;;5071276;28;20475;-73
2022/04/11 06:25:44;;;;;;;6.20;5.17;;;;;;;;;;5071132;28;20960;-74
2022/04/11 06:28:11;;;;;;;6.23;5.30;;;;;;;;;;5071272;28;20968;-73
2022/04/11 06:30:39;;;;;;;7.23;5.90;;;;;;;;;;5071638;28;20682;-74
2022/04/11 06:33:07;;;;;;;12.53;8.43;;;;;;;;;;5072652;28;20448;-73
2022/04/11 06:35:34;;;;;;;5.23;4.80;;;;;;;;;;5075166;28;20455;-74
2022/04/11 06:38:01;;;;;;;7.80;4.80;;;;;;;;;;5075199;28;20463;-74
2022/04/11 06:40:28;;;;;;;5.30;4.80;;;;;;;;;;5075061;28;20455;-74
2022/04/11 06:42:55;;;;;;;4.57;4.17;;;;;;;;;;5075183;28;20459;-73
2022/04/11 06:45:22;;;;;;;5.30;4.80;;;;;;;;;;5074996;28;20462;-74
2022/04/11 06:47:50;;;;;;;4.70;4.30;;;;;;;;;;5074782;28;20498;-74
2022/04/11 06:50:18;;;;;;;6.50;3.93;;;;;;;;;;5075210;28;20545;-74
2022/04/11 06:52:45;;;;;;;4.63;4.23;;;;;;;;;;5074736;28;20458;-73
2022/04/11 06:55:12;;;;;;;5.17;4.67;;;;;;;;;;5074552;28;20458;-73
2022/04/11 06:57:39;;;;;;;6.07;4.43;;;;;;;;;;5075285;28;20446;-74
2022/04/11 07:00:07;;;;;;;5.47;4.97;;;;;;;;;;5074860;28;20455;-74
2022/04/11 07:02:34;;;;;;;6.27;4.90;;;;;;;;;;5074699;28;20817;-74
2022/04/11 07:05:02;;;;;;;4.20;3.80;;;;;;;;;;5074417;28;20821;-73
2022/04/11 07:07:31;;;;;;;6.07;4.43;;;;;;;;;;5074817;28;20487;-73
2022/04/11 07:10:00;;;;;;;7.37;5.00;;;;;;;;;;5074384;28;20475;-73
2022/04/11 07:12:27;;;;;;;6.00;4.57;;;;;;;;;;5074870;28;20543;-73
2022/04/11 07:14:56;;;;;;;5.23;4.60;;;;;;;;;;5074413;28;20462;-73
2022/04/11 07:17:23;;;;;;;4.27;3.60;;;;;;;;;;5074643;28;20458;-73
2022/04/11 07:19:50;;;;;;;4.17;3.73;;;;;;;;;;5074591;28;20812;-73
2022/04/11 07:22:22;;;;;;;3.83;3.40;;;;;;;;;;5074370;28;20463;-73
2022/04/11 07:24:50;;;;;;;4.07;3.73;;;;;;;;;;5074150;28;20516;-74
2022/04/11 07:27:17;;;;;;;4.63;4.23;;;;;;;;;;5074333;28;20487;-74
2022/04/11 07:29:44;;;;;;;3.53;3.23;;;;;;;;;;5074614;28;20481;-74
2022/04/11 07:32:11;;;;;;;4.03;3.70;;;;;;;;;;5074171;28;20451;-74
2022/04/11 07:34:40;;;;;;;6.60;4.43;;;;;;;;;;5075483;28;20452;-74
2022/04/11 07:37:08;;;;;;;5.43;4.70;;;;;;;;;;5075551;28;20551;-73
2022/04/11 07:39:35;;;;;;;4.80;4.40;;;;;;;;;;5075685;28;20468;-73
2022/04/11 07:42:04;;;;;;;6.63;3.90;;;;;;;;;;5075521;28;20826;-73
2022/04/11 07:44:31;;;;;;;7.37;4.47;;;;;;;;;;5074904;28;20845;-73
2022/04/11 07:46:58;;;;;;;5.07;4.00;;;;;;;;;;5075439;28;20483;-74
2022/04/11 07:49:25;;;;;;;9.03;5.40;;;;;;;;;;5075386;28;20825;-74
2022/04/11 07:51:53;;;;;;;6.97;4.43;;;;;;;;;;5074931;28;20462;-74
2022/04/11 07:54:20;;;;;;;6.80;4.50;;;;;;;;;;5074579;28;20447;-73
2022/04/11 07:56:47;;;;;;;6.90;5.47;;;;;;;;;;5075132;28;20468;-74
2022/04/11 07:59:16;;;;;;;6.03;4.43;;;;;;;;;;5075116;28;20468;-74
2022/04/11 08:01:43;;;;;;;10.63;6.13;;;;;;;;;;5075134;28;20499;-74
2022/04/11 08:04:10;;;;;;;12.00;6.40;;;;;;;;;;5074944;28;20466;-74
2022/04/11 08:06:37;;;;;;;8.80;5.50;;;;;;;;;;5075080;28;21000;-74
2022/04/11 08:09:04;;;;;;;7.30;5.20;;;;;;;;;;5075130;28;20471;-74
2022/04/11 08:11:31;;;;;;;6.23;4.80;;;;;;;;;;5075136;28;20813;-74
2022/04/11 08:13:59;;;;;;;9.70;5.57;;;;;;;;;;5075037;28;20828;-73
2022/04/11 08:16:27;;;;;;;7.37;6.10;;;;;;;;;;5075013;28;20452;-73
2022/04/11 08:18:54;;;;;;;7.60;5.60;;;;;;;;;;5075025;28;20463;-73
2022/04/11 08:21:21;;;;;;;8.17;5.70;;;;;;;;;;5075036;28;20452;-73
2022/04/11 08:23:48;;;;;;;5.60;5.00;;;;;;;;;;5074454;28;20467;-73
2022/04/11 08:26:15;;;;;;;5.37;4.63;;;;;;;;;;5074615;28;20452;-74
2022/04/11 08:28:42;;;;;;;5.23;4.73;;;;;;;;;;5074593;28;20475;-73
2022/04/11 08:31:09;;;;;;;9.20;5.70;;;;;;;;;;5074568;28;20464;-74
2022/04/11 08:33:38;;;;;;;5.20;4.50;;;;;;;;;;5074469;28;20937;-73
2022/04/11 08:36:05;;;;;;;8.73;4.90;;;;;;;;;;5074449;28;20513;-73
2022/04/11 08:38:32;;;;;;;4.67;4.17;;;;;;;;;;5074401;28;21011;-73
2022/04/11 08:41:02;;;;;;;6.10;4.37;;;;;;;;;;5074358;28;20456;-73
2022/04/11 08:43:29;;;;;;;4.80;4.30;;;;;;;;;;5074450;28;20448;-72
2022/04/11 08:45:56;;;;;;;5.13;4.63;;;;;;;;;;5074306;28;20825;-73
2022/04/11 08:48:23;;;;;;;6.17;5.53;;;;;;;;;;5074212;28;20498;-73
2022/04/11 08:50:52;;;;;;;5.47;4.73;;;;;;;;;;5074260;28;20455;-74
2022/04/11 08:53:21;;;;;;;5.70;5.20;;;;;;;;;;5073563;28;20452;-74
2022/04/11 08:55:49;;;;;;;4.23;3.83;;;;;;;;;;5073271;28;20455;-74
2022/04/11 08:58:16;;;;;;;5.07;4.10;;;;;;;;;;5073936;28;20968;-74
2022/04/11 09:00:43;;;;;;;7.03;4.97;;;;;;;;;;5074230;28;20459;-74
2022/04/11 09:03:10;;;;;;;5.90;5.10;;;;;;;;;;5073863;28;20562;-74
2022/04/11 09:05:37;;;;;;;5.00;4.17;;;;;;;;;;5073653;28;20887;-74
2022/04/11 09:08:06;;;;;;;7.17;5.30;;;;;;;;;;5073697;28;21001;-74
2022/04/11 09:10:36;;;;;;;7.97;6.73;;;;;;;;;;5073884;28;20459;-74
2022/04/11 09:13:05;;;;;;;13.40;5.50;;;;;;;;;;5073801;28;20459;-74
2022/04/11 09:15:39;;;;;;;4.67;4.13;;;;;;;;;;5073529;28;20832;-74
2022/04/11 09:18:06;;;;;;;5.07;4.57;;;;;;;;;;5073616;28;20459;-74
2022/04/11 09:20:33;;;;;;;5.33;4.30;;;;;;;;;;5073780;28;20467;-74
2022/04/11 09:23:01;;;;;;;7.50;4.80;;;;;;;;;;5073463;28;20460;-74
2022/04/11 09:25:31;;;;;;;7.30;5.37;;;;;;;;;;5073393;28;20456;-74
2022/04/11 09:28:05;;;;;;;8.03;4.00;;;;;;;;;;5073423;28;20484;-74
2022/04/11 09:30:32;;;;;;;6.63;5.00;;;;;;;;;;5073677;28;20444;-74
2022/04/11 09:33:04;;;;;;;4.67;4.10;;;;;;;;;;5073541;28;20555;-73
2022/04/11 09:35:32;;;;;;;5.53;4.37;;;;;;;;;;5073330;28;20464;-74
2022/04/11 09:38:06;;;;;;;5.27;4.03;;;;;;;;;;5073381;28;20518;-74
2022/04/11 09:40:37;;;;;;;6.20;4.00;;;;;;;;;;5073546;28;20855;-74
2022/04/11 09:43:05;;;;;;;5.07;4.43;;;;;;;;;;5073388;28;20456;-74
2022/04/11 09:45:32;;;;;;;5.50;4.10;;;;;;;;;;5073198;28;20920;-74
2022/04/11 09:47:59;;;;;;;4.40;4.00;;;;;;;;;;5073213;28;20483;-74
2022/04/11 09:50:29;;;;;;;4.77;3.87;;;;;;;;;;5073410;28;20513;-74
2022/04/11 09:53:06;;;;;;;4.20;3.83;;;;;;;;;;5072819;28;20451;-74
2022/04/11 09:55:34;;;;;;;4.77;3.80;;;;;;;;;;5073224;28;20447;-74
2022/04/11 09:58:04;;;;;;;4.57;3.50;;;;;;;;;;5073026;28;20838;-74
2022/04/11 10:00:32;;;;;;;8.23;4.60;;;;;;;;;;5073356;28;20546;-74
2022/04/11 10:02:59;;;;;;;4.53;3.70;;;;;;;;;;5073125;28;20474;-74
2022/04/11 10:05:26;;;;;;;4.37;3.40;;;;;;;;;;5072864;28;20456;-74
2022/04/11 10:07:54;;;;;;;5.50;3.53;;;;;;;;;;5072632;28;20487;-74
2022/04/11 10:10:21;;;;;;;6.07;4.40;;;;;;;;;;5072982;28;20451;-74
2022/04/11 10:12:51;;;;;;;5.27;3.80;;;;;;;;;;5073043;28;20448;-74
2022/04/11 10:15:20;;;;;;;5.30;3.53;;;;;;;;;;5073049;28;20459;-74
2022/04/11 10:17:47;;;;;;;6.13;4.27;;;;;;;;;;5073064;28;20971;-75
2022/04/11 10:20:23;;;;;;;4.40;4.00;;;;;;;;;;5072772;28;20447;-73
2022/04/11 10:22:55;;;;;;;4.90;4.40;;;;;;;;;;5072764;28;20968;-74
2022/04/11 10:25:22;;;;;;;4.17;3.73;;;;;;;;;;5072634;28;20451;-74
2022/04/11 10:28:09;;;;;;;5.47;4.17;;;;;;;;;;5072721;28;20480;-74
2022/04/11 10:30:38;;;;;;;4.07;3.67;;;;;;;;;;5072769;28;20452;-74
2022/04/11 10:33:05;;;;;;;4.00;3.57;;;;;;;;;;5072536;28;20459;-74
2022/04/11 10:35:34;;;;;;;3.50;3.10;;;;;;;;;;5072487;28;20451;-74
2022/04/11 10:38:07;;;;;;;3.97;3.17;;;;;;;;;;5072724;28;20467;-74
2022/04/11 10:40:36;;;;;;;4.83;3.53;;;;;;;;;;5072995;28;20830;-74
2022/04/11 10:43:13;;;;;;;3.70;3.40;;;;;;;;;;5072664;28;20447;-74
2022/04/11 10:45:42;;;;;;;3.63;3.33;;;;;;;;;;5072509;28;20466;-74
2022/04/11 10:48:10;;;;;;;3.50;3.20;;;;;;;;;;5072566;28;20495;-73
2022/04/11 10:50:38;;;;;;;6.00;3.97;;;;;;;;;;5072914;28;20478;-74
2022/04/11 10:53:09;;;;;;;4.40;3.63;;;;;;;;;;5072171;28;20483;-74
2022/04/11 10:55:37;;;;;;;6.50;3.10;;;;;;;;;;5072435;28;20526;-74
2022/04/11 10:58:04;;;;;;;3.67;3.37;;;;;;;;;;5072389;28;20809;-73
2022/04/11 11:00:32;;;;;;;4.13;3.03;;;;;;;;;;5072468;28;20463;-73
2022/04/11 11:03:09;;;;;;;5.53;3.30;;;;;;;;;;5072409;28;20870;-74
2022/04/11 11:05:38;;;;;;;5.00;3.20;;;;;;;;;;5072350;28;21002;-74
2022/04/11 11:08:23;;;;;;;5.13;3.00;;;;;;;;;;5072238;28;20518;-74
2022/04/11 11:10:52;;;;;;;3.20;2.90;;;;;;;;;;5072269;28;20547;-73
2022/04/11 11:13:26;;;;;;;6.10;3.60;;;;;;;;;;5072587;28;20490;-74
2022/04/11 11:15:53;;;;;;;5.03;4.27;;;;;;;;;;5072298;28;20963;-74
2022/04/11 11:18:22;;;;;;;5.90;3.50;;;;;;;;;;5072451;28;20471;-74
2022/04/11 11:20:51;;;;;;;4.63;3.17;;;;;;;;;;5076057;28;20447;-74
2022/04/11 11:23:23;;;;;;;4.70;3.40;;;;;;;;;;5075702;28;20459;-74
2022/04/11 11:25:50;;;;;;;3.90;3.30;;;;;;;;;;5075827;28;20470;-74
2022/04/11 11:28:17;;;;;;;3.70;3.30;;;;;;;;;;5075782;28;20491;-74
2022/04/11 11:30:44;;;;;;;3.77;3.00;;;;;;;;;;5076091;28;20462;-74
2022/04/11 11:33:14;;;;;;;3.17;2.80;;;;;;;;;;5075800;28;20447;-74
2022/04/11 11:35:49;;;;;;;4.67;2.90;;;;;;;;;;5075476;28;20456;-74
2022/04/11 11:38:17;;;;;;;3.50;2.63;;;;;;;;;;5075769;28;20474;-74
2022/04/11 11:40:45;;;;;;;4.13;2.83;;;;;;;;;;5075852;28;20455;-74
2022/04/11 11:43:15;;;;;;;5.63;3.60;;;;;;;;;;5075499;28;20451;-74
2022/04/11 11:45:42;;;;;;;5.63;2.83;;;;;;;;;;5075501;28;20816;-74
2022/04/11 11:48:22;;;;;;;4.67;2.80;;;;;;;;;;5075246;28;20860;-74
2022/04/11 11:50:51;;;;;;;6.30;2.83;;;;;;;;;;5075691;28;20508;-74
2022/04/11 11:53:19;;;;;;;4.77;3.40;;;;;;;;;;5074882;28;20448;-74
2022/04/11 11:55:56;;;;;;;4.60;3.40;;;;;;;;;;5075334;28;20960;-74
2022/04/11 11:58:24;;;;;;;4.90;3.57;;;;;;;;;;5075121;28;20981;-74
2022/04/11 12:00:51;;;;;;;3.60;2.87;;;;;;;;;;5075181;28;20462;-74
2022/04/11 12:06:05;;;;;;;3.97;2.90;;;;;;;;;;5074989;28;20439;-74
2022/04/11 12:08:33;;;;;;;6.60;3.43;;;;;;;;;;5074790;28;20541;-74
2022/04/11 12:11:01;;;;;;;3.30;3.00;;;;;;;;;;5074681;28;20468;-74
2022/04/11 12:13:29;;;;;;;4.27;3.03;;;;;;;;;;5074733;28;20451;-74
2022/04/11 12:16:07;;;;;;;8.93;2.77;;;;;;;;;;5074963;28;20455;-74
2022/04/11 12:18:47;;;;;;;3.70;3.40;;;;;;;;;;5074857;28;20495;-74
2022/04/11 12:21:16;;;;;;;3.17;2.63;;;;;;;;;;5074732;28;20452;-74
2022/04/11 12:23:47;;;;;;;5.50;4.50;;;;;;;;;;5074382;28;20471;-74
2022/04/11 12:26:15;;;;;;;4.70;3.60;;;;;;;;;;5074640;28;20495;-74
2022/04/11 12:28:42;;;;;;;3.33;3.03;;;;;;;;;;5074132;28;20574;-75
2022/04/11 12:31:13;;;;;;;3.23;2.90;;;;;;;;;;5073192;28;20452;-74
2022/04/11 12:33:42;;;;;;;7.43;3.73;;;;;;;;;;5074393;28;20956;-74
2022/04/11 12:36:11;;;;;;;4.00;3.37;;;;;;;;;;5074270;28;20460;-75
2022/04/11 12:38:43;;;;;;;3.53;2.97;;;;;;;;;;5074363;28;20853;-75
2022/04/11 12:41:24;;;;;;;8.90;3.30;;;;;;;;;;5074438;28;20462;-74
2022/04/11 12:44:06;;;;;;;5.33;3.37;;;;;;;;;;5074108;28;20451;-74
2022/04/11 12:46:34;;;;;;;3.30;2.80;;;;;;;;;;5074221;28;20462;-74
2022/04/11 12:49:01;;;;;;;4.00;3.50;;;;;;;;;;5073988;28;20497;-74
2022/04/11 12:51:28;;;;;;;4.93;3.50;;;;;;;;;;5074258;28;20458;-73
2022/04/11 12:54:04;;;;;;;5.60;3.60;;;;;;;;;;5073555;28;20455;-74
2022/04/11 12:56:35;;;;;;;7.50;4.60;;;;;;;;;;5074115;28;20463;-74
2022/04/11 12:59:02;;;;;;;4.27;3.50;;;;;;;;;;5073789;28;20508;-74
2022/04/11 13:01:44;;;;;;;4.10;3.33;;;;;;;;;;5074182;28;20961;-74
2022/04/11 13:04:11;;;;;;;6.10;3.90;;;;;;;;;;5073621;28;20447;-74
2022/04/11 13:06:39;;;;;;;3.83;3.43;;;;;;;;;;5073897;28;20459;-74
2022/04/11 13:09:07;;;;;;;4.00;3.30;;;;;;;;;;5073756;28;21000;-74
2022/04/11 13:11:40;;;;;;;4.67;3.10;;;;;;;;;;5073866;28;20460;-74
2022/04/11 13:14:08;;;;;;;4.17;3.50;;;;;;;;;;5073553;28;20463;-74
2022/04/11 13:19:20;;;;;;;6.70;3.53;;;;;;;;;;5073757;28;21058;-74
2022/04/11 13:21:47;;;;;;;3.90;3.50;;;;;;;;;;5073479;28;20464;-74
2022/04/11 13:24:15;;;;;;;9.77;4.87;;;;;;;;;;5073334;28;20945;-74
2022/04/11 13:26:42;;;;;;;3.33;3.03;;;;;;;;;;5073588;28;20460;-74
2022/04/11 13:29:10;;;;;;;4.43;3.40;;;;;;;;;;5073180;28;20491;-74
2022/04/11 13:31:37;;;;;;;4.00;3.60;;;;;;;;;;5073370;28;20459;-74
2022/04/11 13:34:04;;;;;;;4.60;2.80;;;;;;;;;;5073106;28;20827;-74
2022/04/11 13:36:31;;;;;;;4.83;3.60;;;;;;;;;;5073367;28;20456;-75
2022/04/11 13:38:59;;;;;;;4.20;3.20;;;;;;;;;;5073182;28;20469;-74
2022/04/11 13:41:27;;;;;;;4.43;3.77;;;;;;;;;;5072948;28;20456;-73
2022/04/11 13:43:55;;;;;;;3.10;2.80;;;;;;;;;;5073058;28;20478;-74
2022/04/11 13:46:22;;;;;;;3.33;2.90;;;;;;;;;;5073101;28;20492;-74
2022/04/11 13:48:50;;;;;;;4.07;2.67;;;;;;;;;;5073008;28;20487;-74
2022/04/11 13:51:17;;;;;;;4.77;3.43;;;;;;;;;;5073054;28;20835;-74
2022/04/11 13:53:44;;;;;;;6.00;3.23;;;;;;;;;;5072446;28;20455;-74
2022/04/11 13:56:11;;;;;;;7.10;2.80;;;;;;;;;;5073088;28;20441;-74
2022/04/11 13:58:40;;;;;;;4.07;3.13;;;;;;;;;;5072995;28;20475;-73
2022/04/11 14:01:07;;;;;;;3.27;3.03;;;;;;;;;;5073048;28;20533;-74
2022/04/11 14:03:35;;;;;;;4.70;3.70;;;;;;;;;;5072879;28;20452;-74
2022/04/11 14:06:02;;;;;;;4.10;3.70;;;;;;;;;;5072857;28;20458;-74
2022/04/11 14:08:29;;;;;;;2.90;2.50;;;;;;;;;;5072983;28;20496;-74
2022/04/11 14:10:57;;;;;;;6.33;4.07;;;;;;;;;;5072766;28;20809;-73
2022/04/11 14:13:24;;;;;;;3.63;3.30;;;;;;;;;;5073021;28;20979;-73
2022/04/11 14:15:52;;;;;;;4.07;3.17;;;;;;;;;;5072668;28;20452;-74
2022/04/11 14:18:19;;;;;;;4.60;3.80;;;;;;;;;;5072710;28;20468;-74
2022/04/11 14:20:46;;;;;;;4.60;3.60;;;;;;;;;;5072824;28;20463;-74
2022/04/11 14:23:14;;;;;;;6.93;3.80;;;;;;;;;;5072529;28;20463;-74
2022/04/11 14:25:41;;;;;;;5.20;3.47;;;;;;;;;;5072558;28;20448;-74
2022/04/11 14:28:08;;;;;;;5.90;3.57;;;;;;;;;;5072644;28;20472;-74
2022/04/11 14:30:35;;;;;;;5.30;4.10;;;;;;;;;;5072714;28;20479;-74
2022/04/11 14:33:03;;;;;;;4.40;3.50;;;;;;;;;;5072605;28;20964;-74
2022/04/11 14:35:30;;;;;;;5.63;3.90;;;;;;;;;;5072485;28;20463;-74
2022/04/11 14:37:58;;;;;;;4.17;3.77;;;;;;;;;;5072418;28;20456;-74
2022/04/11 14:40:25;;;;;;;5.87;3.30;;;;;;;;;;5072672;28;20450;-75
2022/04/11 14:42:52;;;;;;;8.90;3.87;;;;;;;;;;5072527;28;20447;-74
2022/04/11 14:45:19;;;;;;;4.83;3.10;;;;;;;;;;5072301;28;20550;-74